Latest Weather Observations for Melbourne Airport

IDV60801

Issued at 11:35 am EST Thursday 24 July 2014 (issued every 30 minutes, with the page automatically refreshed every 10 minutes)

About weather observations | Map of weather stations | Latest weather observations for VIC | Other Formats
Station Details ID: 086282 Name: MELBOURNE AIRPORT Lat: -37.67 Lon: 144.83 Height: 113.4 m
Data from the previous 72 hours. | See also: Recent months at Melbourne Airport
Date/Time
EST
Temp
°C
App
Temp
°C
Dew
Point
Rel
Hum
%
Delta-T
°C
Wind Press
QNH
hPa
Press
MSL
hPa
Rain
since 9 am
mm
Dir
 
Spd
km/h
Gust
km/h
Spd
kts
Gust
kts
24/11:30am 11.8 5.9 7.3 74 2.2 NNE 28 41 15 22 1015.4 - 0.0
24/11:00am 11.6 5.7 7.3 75 2.1 N 28 39 15 21 1016.2 1016.4 0.0
24/10:30am 11.2 5.9 6.8 74 2.1 N 24 30 13 16 1016.6 - 0.0
24/10:00am 10.4 5.9 6.8 78 1.7 N 20 30 11 16 1016.7 1016.9 0.0
24/09:00am 9.2 6.7 6.4 83 1.3 N 9 15 5 8 1016.3 1016.5 0.0
24/08:30am 9.0 6.4 6.2 82 1.3 N 9 13 5 7 1016.2 - 0.0
24/08:00am 8.8 5.8 6.0 82 1.3 N 11 17 6 9 1016.1 1016.3 0.0
24/07:30am 8.0 4.6 5.8 86 1.0 NNE 13 19 7 10 1016.1 - 0.0
24/07:00am 7.6 4.2 5.8 88 0.8 NNE 13 17 7 9 1016.0 1016.2 0.0
24/06:30am 7.6 4.2 6.1 90 0.7 NE 13 17 7 9 1016.0 - 0.0
24/06:00am 7.2 3.8 5.9 91 0.6 NNE 13 15 7 8 1016.2 1016.4 0.0
24/05:30am 7.0 4.0 5.9 93 0.5 NE 11 15 6 8 1016.3 - 0.0
24/05:00am 7.8 4.4 6.0 88 0.8 NNE 13 17 7 9 1016.5 1016.7 0.0
24/04:30am 7.5 3.3 5.7 88 0.8 NNE 17 20 9 11 1016.5 - 0.0
24/04:00am 8.0 3.2 5.6 85 1.1 NE 20 26 11 14 1016.8 1017.0 0.0
24/03:30am 6.4 3.2 5.0 91 0.6 N 11 17 6 9 1016.9 - 0.0
24/03:00am 6.2 2.3 5.3 94 0.4 N 15 17 8 9 1016.8 1017.0 0.0
24/02:30am 5.7 1.3 4.8 94 0.4 N 17 17 9 9 1017.0 - 0.0
24/02:00am 5.4 0.6 4.7 95 0.3 N 19 28 10 15 1017.3 1017.5 0.0
24/01:30am 4.4 -0.2 3.9 97 0.2 NNE 17 19 9 10 1017.4 - 0.0
24/01:00am 5.2 0.8 4.5 95 0.3 NNE 17 19 9 10 1017.6 1017.8 0.0
24/12:30am 6.7 2.4 5.1 89 0.7 NNE 17 19 9 10 1017.9 - 0.0
24/12:00am 5.7 2.1 4.8 94 0.4 NNE 13 20 7 11 1018.4 1018.6 0.0
 
Date/Time
EST
Temp
°C
App
Temp
°C
Dew
Point
Rel
Hum
%
Delta-T
°C
Wind Press
QNH
hPa
Press
MSL
hPa
Rain
since 9 am
mm
Dir
 
Spd
km/h
Gust
km/h
Spd
kts
Gust
kts
23/11:30pm 6.3 3.1 4.9 91 0.6 ENE 11 15 6 8 1018.9 - 0.0
23/11:00pm 6.3 3.8 4.7 89 0.7 NE 7 9 4 5 1019.1 1019.3 0.0
23/10:30pm 6.6 3.5 5.5 93 0.5 NE 11 13 6 7 1019.3 - 0.0
23/10:00pm 7.7 3.4 5.2 84 1.1 NE 17 22 9 12 1019.6 1019.8 0.0
23/09:30pm 7.4 3.1 5.1 85 1.0 NE 17 19 9 10 1019.6 - 0.0
23/09:00pm 7.3 3.7 5.0 85 1.0 NNE 13 17 7 9 1019.9 1020.1 0.0
23/08:30pm 6.6 3.6 4.3 85 1.0 NNE 9 15 5 8 1019.9 - 0.0
23/08:00pm 6.7 2.5 3.9 82 1.2 N 15 19 8 10 1019.9 1020.1 0.0
23/07:30pm 7.0 2.4 3.7 79 1.4 N 17 19 9 10 1019.8 - 0.0
23/07:00pm 7.5 2.5 3.5 76 1.7 N 19 26 10 14 1019.9 1020.1 0.0
23/06:30pm 7.6 3.5 4.4 80 1.4 N 15 32 8 17 1019.7 - 0.0
23/06:00pm 9.1 4.7 4.6 73 2.0 NNE 17 19 9 10 1019.5 1019.7 0.0
23/05:30pm 9.7 5.3 4.8 71 2.2 NNE 17 20 9 11 1019.6 - 0.0
23/05:00pm 10.6 5.8 4.9 68 2.6 N 19 24 10 13 1019.4 1019.6 0.0
23/04:30pm 11.0 6.6 4.8 65 2.8 N 17 22 9 12 1019.5 - 0.0
23/04:00pm 11.3 5.3 3.6 59 3.4 N 24 32 13 17 1019.4 1019.6 0.0
23/03:30pm 11.4 4.2 3.2 57 3.6 N 30 37 16 20 1019.5 - 0.0
23/03:00pm 11.6 4.9 3.5 57 3.6 N 28 35 15 19 1019.6 1019.8 0.0
23/02:30pm 11.8 5.2 4.0 59 3.5 N 28 44 15 24 1019.8 - 0.0
23/02:00pm 11.8 4.7 3.5 57 3.7 N 30 37 16 20 1020.2 1020.4 0.0
23/01:30pm 11.6 5.0 4.0 59 3.4 N 28 35 15 19 1020.5 - 0.0
23/01:00pm 11.4 4.8 4.0 60 3.3 N 28 35 15 19 1021.0 1021.2 0.0
23/12:30pm 11.9 5.7 4.1 59 3.5 N 26 33 14 18 1021.4 - 0.0
23/12:00pm 11.7 5.4 3.9 59 3.5 N 26 33 14 18 1022.1 1022.3 0.0
23/11:30am 11.8 6.8 4.8 62 3.2 N 20 28 11 15 1022.7 - 0.0
23/11:00am 11.5 6.1 4.7 63 3.1 N 22 30 12 16 1023.3 1023.5 0.0
23/10:30am 10.7 6.0 5.0 68 2.6 N 19 28 10 15 1023.5 - 0.0
23/10:00am 9.3 6.0 4.8 73 2.0 N 11 19 6 10 1023.7 1023.9 0.0
23/09:30am 5.7 3.0 3.6 86 0.9 NNE 7 17 4 9 1023.6 - 0.0
23/09:00am 3.3 0.6 2.5 94 0.3 NNE 6 9 3 5 1023.7 1023.9 0.0
23/08:30am 2.3 -0.6 1.3 93 0.4 NNE 6 7 3 4 1023.8 - 0.0
23/08:00am 0.7 -1.7 -0.1 94 0.3 NNE 2 7 1 4 1023.9 1024.1 0.0
23/07:30am 0.1 - - - - CALM 0 0 0 0 1024.0 - 0.0
23/07:15am 0.1 - - - - NE 2 7 1 4 1023.9 - 0.0
23/07:00am 0.1 - - - - CALM 0 - 0 - 1023.6 1023.8 0.0
23/06:55am -0.1 -2.1 -0.1 100 0.0 CALM 0 - 0 - 1023.6 - 0.0
23/06:45am -0.2 -2.2 -0.2 100 0.0 CALM 0 - 0 - 1023.7 - 0.0
23/06:30am -0.3 -2.3 -0.3 100 0.0 CALM 0 0 0 0 1023.6 - 0.0
23/06:00am 0.1 -3.2 0.1 100 0.0 N 7 9 4 5 1023.3 1023.5 0.0
23/05:30am 0.7 -2.9 0.7 100 0.0 N 9 11 5 6 1023.5 - 0.0
23/05:18am 0.9 -2.3 0.9 100 0.0 N 7 9 4 5 1023.4 - 0.0
23/05:09am 1.2 -1.9 1.2 100 0.0 N 7 9 4 5 1023.3 - 0.0
23/05:00am 1.6 -1.5 1.6 100 0.0 N 7 9 4 5 1023.3 1023.5 0.0
23/04:51am 1.9 -1.5 1.9 100 0.0 N 9 11 5 6 1023.4 - 0.0
23/04:30am 2.3 -1.0 2.3 100 0.0 N 9 11 5 6 1023.4 - 0.0
23/04:22am 2.5 -0.4 2.5 100 0.0 N 7 11 4 6 1023.5 - 0.0
23/04:17am 2.5 -0.4 2.5 100 0.0 N 7 9 4 5 1023.5 - 0.0
23/04:00am 2.5 -1.2 2.2 98 0.1 N 11 13 6 7 1023.5 1023.7 0.0
23/03:50am 3.0 0.2 3.0 100 0.0 N 7 9 4 5 1023.5 - 0.0
23/03:40am 3.7 0.2 3.7 100 0.0 N 11 13 6 7 1023.6 - 0.0
23/03:30am 4.1 0.3 4.1 100 0.0 N 13 13 7 7 1023.7 - 0.0
23/03:00am 4.7 1.0 4.7 100 0.0 N 13 17 7 9 1023.9 1024.1 0.0
23/02:30am 5.6 4.6 5.6 100 0.0 CALM 0 - 0 - 1024.1 - 0.0
23/02:00am 5.7 4.3 5.7 100 0.0 NNE 2 9 1 5 1024.0 1024.2 0.0
23/01:48am 5.9 3.6 5.7 99 0.1 N 7 11 4 6 1024.0 - 0.0
23/01:30am 5.9 3.6 5.7 99 0.1 N 7 9 4 5 1024.1 - 0.0
23/01:00am 5.8 2.7 5.6 99 0.1 N 11 11 6 6 1024.2 1024.4 0.0
23/12:30am 5.7 2.6 5.5 99 0.1 N 11 15 6 8 1024.5 - 0.0
23/12:00am 5.7 2.2 5.5 99 0.1 N 13 15 7 8 1024.6 1024.8 0.0
 
Date/Time
EST
Temp
°C
App
Temp
°C
Dew
Point
Rel
Hum
%
Delta-T
°C
Wind Press
QNH
hPa
Press
MSL
hPa
Rain
since 9 am
mm
Dir
 
Spd
km/h
Gust
km/h
Spd
kts
Gust
kts
22/11:30pm 5.6 2.5 5.6 100 0.0 N 11 13 6 7 1024.8 - 0.0
22/11:00pm 5.3 2.1 5.3 100 0.0 N 11 15 6 8 1025.1 1025.4 0.0
22/10:30pm 4.9 2.0 4.7 99 0.1 N 9 13 5 7 1025.1 - 0.0
22/10:00pm 4.6 1.7 4.6 100 0.0 N 9 13 5 7 1025.4 1025.7 0.0
22/09:39pm 4.0 -0.2 4.0 100 0.0 N 15 17 8 9 1025.2 - 0.0
22/09:30pm 4.0 -0.2 4.0 100 0.0 N 15 17 8 9 1025.1 - 0.0
22/09:00pm 4.0 -0.2 4.0 100 0.0 NNE 15 17 8 9 1025.1 1025.4 0.0
22/08:30pm 4.0 0.2 4.0 100 0.0 NNE 13 15 7 8 1025.1 - 0.0
22/08:00pm 4.2 0.8 4.2 100 0.0 NNE 11 13 6 7 1024.9 1025.1 0.0
22/07:36pm 4.3 1.0 4.3 100 0.0 NNE 11 13 6 7 1024.7 - 0.0
22/07:30pm 4.3 1.0 4.3 100 0.0 NNE 11 11 6 6 1024.7 - 0.0
22/07:22pm 4.2 0.8 4.0 99 0.1 N 11 15 6 8 1024.7 - 0.0
22/07:00pm 4.3 0.8 3.6 95 0.3 N 11 13 6 7 1024.5 1024.7 0.0
22/06:30pm 4.7 1.2 3.7 93 0.4 N 11 13 6 7 1024.4 - 0.0
22/06:00pm 5.6 1.9 4.4 92 0.5 N 13 15 7 8 1024.3 1024.5 0.0
22/05:30pm 6.2 3.3 4.8 91 0.6 NNW 9 13 5 7 1024.3 - 0.0
22/05:00pm 7.4 4.7 5.4 87 0.9 NW 9 11 5 6 1024.4 1024.6 0.0
22/04:30pm 8.0 5.0 5.8 86 1.0 WNW 11 13 6 7 1024.3 - 0.0
22/04:00pm 8.4 6.1 5.8 84 1.2 N 7 9 4 5 1024.4 1024.6 0.0
22/03:30pm 9.7 7.0 5.8 77 1.8 N 9 11 5 6 1024.5 - 0.0
22/03:00pm 9.2 6.5 5.4 77 1.7 N 9 11 5 6 1024.7 1024.9 0.0
22/02:30pm 8.7 6.5 5.4 80 1.5 N 6 13 3 7 1024.8 - 0.0
22/02:00pm 8.4 5.7 5.8 84 1.2 NNW 9 11 5 6 1025.0 1025.3 0.0
22/01:30pm 7.6 5.3 5.8 88 0.8 NW 7 9 4 5 1025.3 - 0.0
22/01:00pm 6.5 4.7 5.4 93 0.5 SSE 4 9 2 5 1025.7 1026.0 0.0
22/12:30pm 6.1 5.1 5.4 95 0.3 CALM 0 0 0 0 1026.3 - 0.0
22/12:00pm 5.9 4.9 5.4 97 0.2 CALM 0 0 0 0 1026.5 1026.8 0.0
22/11:30am 5.8 4.8 5.6 99 0.1 CALM 0 0 0 0 1026.5 - 0.0
22/11:00am 5.6 4.6 5.4 99 0.1 CALM 0 - 0 - 1027.0 1027.2 0.0
22/10:30am 5.6 2.9 5.6 100 0.0 WNW 9 11 5 6 1027.0 - 0.0
22/10:23am 5.5 3.7 5.5 100 0.0 W 4 9 2 5 1027.1 - 0.0
22/10:05am 5.5 3.1 5.3 99 0.1 WSW 7 11 4 6 1027.0 - 0.0
22/10:00am 5.4 3.0 5.4 100 0.0 WNW 7 11 4 6 1026.8 1027.1 0.0
22/09:30am 5.4 3.0 5.4 100 0.0 N 7 9 4 5 1027.0 - 0.0
22/09:00am 4.9 2.0 4.9 100 0.0 N 9 11 5 6 1026.5 1026.8 0.2
22/08:30am 4.7 2.2 4.7 100 0.0 N 7 11 4 6 1026.3 - 0.2
22/08:00am 4.9 2.6 4.9 100 0.0 NW 6 9 3 5 1026.1 1026.4 0.0
22/07:30am 5.1 2.3 5.1 100 0.0 N 9 13 5 7 1026.0 - 0.0
22/07:00am 5.1 2.3 5.1 100 0.0 N 9 11 5 6 1025.5 1025.8 0.0
22/06:30am 5.3 2.9 5.3 100 0.0 NNW 7 9 4 5 1025.4 - 0.0
22/06:00am 5.5 2.8 5.5 100 0.0 NNW 9 11 5 6 1025.2 1025.5 0.0
22/05:30am 5.7 3.4 5.7 100 0.0 NNW 7 7 4 4 1025.1 - 0.0
22/05:00am 5.7 3.4 5.7 100 0.0 N 7 9 4 5 1024.8 1025.0 0.0
22/04:56am 5.8 3.5 5.6 99 0.1 N 7 9 4 5 1024.8 - 0.0
22/04:30am 5.6 4.2 5.4 99 0.1 NNW 2 7 1 4 1024.6 - 0.0
22/04:00am 5.6 2.7 4.9 95 0.3 N 9 9 5 5 1024.7 1024.9 0.0
22/03:30am 5.3 2.4 4.6 95 0.3 N 9 11 5 6 1024.6 - 0.0
22/03:00am 5.1 1.4 4.4 95 0.3 N 13 15 7 8 1024.8 1025.0 0.0
22/02:30am 5.0 2.1 4.5 97 0.2 N 9 11 5 6 1024.9 - 0.0
22/02:00am 4.5 1.1 4.0 97 0.2 N 11 13 6 7 1025.0 1025.3 0.0
22/01:30am 3.3 -0.3 2.8 97 0.2 N 11 13 6 7 1024.9 - 0.0
22/01:00am 3.1 -0.2 2.3 94 0.3 N 9 11 5 6 1025.0 1025.3 0.0
22/12:30am 3.1 -0.2 2.6 96 0.2 N 9 11 5 6 1025.2 - 0.0
22/12:00am 3.7 0.5 3.0 95 0.3 N 9 11 5 6 1025.4 1025.7 0.0
 
Date/Time
EST
Temp
°C
App
Temp
°C
Dew
Point
Rel
Hum
%
Delta-T
°C
Wind Press
QNH
hPa
Press
MSL
hPa
Rain
since 9 am
mm
Dir
 
Spd
km/h
Gust
km/h
Spd
kts
Gust
kts
21/11:30pm 4.0 0.5 3.3 95 0.3 N 11 13 6 7 1025.3 - 0.0
21/11:00pm 4.2 1.4 3.0 92 0.5 N 7 9 4 5 1025.3 1025.6 0.0
21/10:30pm 3.9 0.0 3.2 95 0.3 N 13 17 7 9 1025.2 - 0.0
21/10:00pm 3.2 1.3 2.7 96 0.2 N 2 7 1 4 1025.2 1025.5 0.0
21/09:30pm 4.8 2.2 4.1 95 0.3 N 7 9 4 5 1025.1 - 0.0
21/09:00pm 4.9 2.3 4.2 95 0.3 N 7 9 4 5 1025.1 1025.4 0.0
21/08:30pm 6.5 4.1 5.4 93 0.5 NNW 7 9 4 5 1025.1 - 0.0
21/08:00pm 6.9 5.6 6.0 94 0.4 NNW 2 7 1 4 1025.1 1025.4 0.0
21/07:30pm 7.8 7.0 6.3 90 0.7 CALM 0 0 0 0 1024.9 - 0.0
21/07:00pm 8.0 7.2 6.7 91 0.6 CALM 0 0 0 0 1024.9 1025.1 0.0
21/06:30pm 8.6 6.1 6.7 88 0.9 SSE 9 11 5 6 1024.6 - 0.0
21/06:00pm 8.6 6.1 6.7 88 0.9 S 9 11 5 6 1024.5 1024.7 0.0
21/05:30pm 9.4 7.0 6.8 84 1.2 SSE 9 11 5 6 1024.3 - 0.0
21/05:00pm 10.4 8.5 6.8 78 1.7 NNE 6 9 3 5 1024.2 1024.4 0.0
21/04:30pm 11.3 8.3 5.9 69 2.5 NNE 11 11 6 6 1024.2 - 0.0
21/04:00pm 11.8 9.3 4.5 61 3.3 E 7 13 4 7 1024.1 1024.3 0.0
21/03:30pm 12.0 9.6 5.3 63 3.1 E 7 9 4 5 1024.1 - 0.0
21/03:00pm 12.2 9.5 5.8 65 3.0 E 9 11 5 6 1024.0 1024.2 0.0
21/02:30pm 12.3 9.5 5.2 62 3.3 N 9 13 5 7 1024.0 - 0.0
21/02:00pm 12.3 9.7 6.2 66 2.9 NE 9 17 5 9 1024.1 1024.3 0.0
21/01:30pm 11.7 9.1 6.2 69 2.6 ENE 9 13 5 7 1024.3 - 0.0
21/01:00pm 12.0 10.2 7.0 71 2.4 NE 6 11 3 6 1024.6 1024.8 0.0
21/12:30pm 11.6 9.2 6.8 72 2.3 N 9 13 5 7 1025.1 - 0.0
21/12:00pm 11.2 8.4 6.8 74 2.1 N 11 17 6 9 1025.5 1025.8 0.0

Other Formats:

Comma delimited format used in spreadsheet applications
http://www.bom.gov.au/fwo/IDV60801/IDV60801.94866.axf

JavaScript Object Notation format (JSON) in row-major order
http://www.bom.gov.au/fwo/IDV60801/IDV60801.94866.json